Terminal Aerodrome Forecast
Issued by NWS

Home | Current Version | Previous Version | Text Only | Print | Product List | Glossary On
Versions: 1 2 3 4 5 6 7 8 9 10 11 12 13 14 15 16 17
368
FTUS46 KMTR 051737
TAFSTS
TAF
KSTS 051737Z 0518/0618 VRB03KT P6SM VCSH BKN030
     FM052100 18008KT P6SM VCSH SCT040 BKN080
     FM060300 16005KT P6SM VCSH SCT025 BKN040
     FM060700 VRB03KT P6SM VCSH BKN020 OVC025=

USA.gov is the U.S. government's official web portal to all federal, state and local government web resources and services.